KBUF/BUF METAR and TAF weather

Enter ICAO airport designator
Station Type Date Time Source
KBUF METAR 2019/04/18 19:54 UTC NOAA

KBUF 181954Z 20021G31KT 10SM SCT060 SCT090 SCT160 BKN240 BKN290 24/11 A2963 RMK AO2 PK WND 19034/1903 SLP029 T02440111


Station Type Date Time Source
KBUF Decoded METAR 2019/04/18 19:54 UTC NOAA

GREATER BUFFALO INTERNATIONAL AIRPORT , NY, United States (KBUF) 42-56N 078-44W 225M
Apr 18, 2019 - 03:54 PM EDT / 2019.04.18 1954 UTC
Wind: from the SSW (200 degrees) at 24 MPH (21 KT) gusting to 36 MPH (31 KT):0
Visibility: 10 mile(s):0
Sky conditions: mostly cloudy
Temperature: 75.9 F (24.4 C)
Dew Point: 52.0 F (11.1 C)
Relative Humidity: 43%
Pressure (altimeter): 29.63 in. Hg (1003 hPa)
ob: KBUF 181954Z 20021G31KT 10SM SCT060 SCT090 SCT160 BKN240 BKN290 24/11 A2963 RMK AO2 PK WND 19034/1903 SLP029 T02440111
cycle: 20

Station Type Date Time Source
KBUF TAF 2019/04/18 18:30 UTC NOAA

TAF KBUF 181728Z 1818/1918 22017G29KT P6SM BKN070
FM182200 22013G21KT P6SM BKN100
FM190200 22009KT P6SM BKN100
FM190600 20007KT P6SM BKN060
FM190900 23004KT P6SM BKN035
FM191400 15004KT 6SM -SHRA BR OVC025

Example: see airport list